• Join FlightAware (Why Join?)
  • Login
  • US Flag 
02:24AM EST


 

Airport Tracker/Info


-or-


 

Live Flight TrackerFlight Track Log ✈ EGF4039 ✈ 11-Jun-2013 ✈ KALO - KORD

Flight Track Log - Related Links

Times and Time Zones

All times are in EDT time to prevent confusion due to time zone crossing. See the EGF4039 flight status page for this flight to view local times or setup timezone preferences in your user account.

Time Position Orientation Groundspeed Altitude Reporting Facility
EDT Latitude Longitude Course Direction KTS MPH feet Rate Location/Type
05:38PM 42.5314 -92.3506 90° East 176 203 2,700  Level Chicago Center
05:39PM 42.5389 -92.2486 84° East 244 281 5,400 2,460 Climbing Chicago Center
05:40PM 42.5364 -92.1558 92° East 246 283 7,800 2,040 Climbing Chicago Center
05:41PM 42.5281 -92.0567 96° East 255 293 9,700 1,920 Climbing Chicago Center
05:42PM 42.4916 -91.7740 97° East  Level FlightAware Approximate
05:42PM 42.5175 -91.9458 97° East 286 329 11,800  Level Chicago Center
05:43PM 42.4833 -91.6483 90° East  Level FlightAware Approximate
05:43PM 42.5056 -91.8086 97° East 308 354 14,100  Level Chicago Center
05:44PM 42.4953 -91.6889 97° East 325 374 15,900 1,680 Climbing Chicago Center
05:45PM 42.4825 -91.5656 98° East 335 386 17,600 1,680 Climbing Chicago Center
05:46PM 42.4717 -91.4353 96° East 351 404 19,400 1,800 Climbing Chicago Center
05:47PM 42.4794 -91.2744 86° East 364 419 21,400 1,560 Climbing Chicago Center
05:48PM 42.4861 -91.1331 86° East 378 435 22,700 720 Climbing Chicago Center
05:49PM 42.4933 -90.9786 86° East 412 474 23,000 120 Climbing Chicago Center
05:51PM 42.4994 -90.8092 87° East 453 521 23,000  Level Chicago Center
05:52PM 42.5067 -90.6331 87° East 472 543 23,000  Level Chicago Center
05:53PM 42.5147 -90.4178 87° East 480 552 23,000  Level Chicago Center
05:54PM 42.5211 -90.2411 87° East 475 547 23,000  Level Chicago Center
05:55PM 42.5275 -90.0642 87° East 475 547 23,000 -540 Level Chicago Center
05:56PM 42.5331 -89.8672 88° East 462 532 22,000 -1,140 Descending Chicago Center
05:57PM 42.5386 -89.7142 87° East 414 476 20,700 -1,440 Descending Chicago Center
05:58PM 42.5439 -89.5542 87° East 422 486 19,100 -1,560 Descending Chicago Center
05:59PM 42.5486 -89.3983 88° East 418 481 17,500 -1,740 Descending Chicago Center
06:00PM 42.5542 -89.2236 87° East 401 461 15,500 -1,860 Descending Chicago Center
06:01PM 42.5522 -89.0808 91° East 390 449 13,700 -1,680 Descending Chicago Center
06:02PM 42.5117 -88.9444 112° Southeast 391 450 12,100 -1,440 Descending Chicago Center
06:03PM 42.4703 -88.8153 113° Southeast 382 440 10,800 -1,020 Descending Chicago Center
06:04PM 42.4314 -88.6861 112° Southeast 375 432 10,000 -420 Descending Chicago Center
06:05PM 42.3867 -88.5389 112° Southeast 368 423 10,000  Level Chicago Center
06:06PM 42.3494 -88.4142 112° Southeast 362 417 10,000 -120 Level Chicago Center
06:07PM 42.2892 -88.2997 125° Southeast 352 405 9,800 -780 Descending Chicago Center
06:08PM 42.2325 -88.2092 130° Southeast 326 375 8,500 -1,260 Descending Chicago Center
06:09PM 42.1728 -88.1322 136° Southeast 305 351 7,300 -780 Descending Chicago Center
06:10PM 42.0958 -88.0958 161° South 297 342 7,000 -180 Descending Chicago Center
06:11PM 42.0208 -88.0603 161° South 289 333 7,000  Level Chicago Center
06:12PM 41.9333 -87.9667 141° Southeast 298 343 7,000  Level Chicago TRACON
06:14PM 41.8833 -87.8833 129° Southeast 273 314 7,000 -120 Level Chicago TRACON
06:14PM 41.8886 -87.8108 84° East 245 282 6,800 -300 Descending Chicago Center